Fabreville, Canada
Current Conditions -  °F | °C
As of 5:00 PM on Friday 19 Dec 2014 (Local Time) from CYUL Reporting Station
Few Clouds Few Clouds  
Wind Chill:   Ceiling: Unl
Heat Index: 19°   Visibility: 15mi
Dew Point: 12°   Wind: 12mph
Humidity: 74%   Direction: 240°WSW
Pressure: 30.17"   Gusts: NA
Location:  45.57°N, 73.65°W
Report Text: CYUL 192200Z 24010KT 15SM FEW240 M07/M11 A3017 RMK CI1 CI TR SLP218
Loading
Personal Weather Stations






























Interactive Weather Map New forecast layout! Learn more

10-Day Weather Forecast

Advertisements
Track Severe Weather on mobile